Saturday, April 30, 2016, 9:03 AM EDT

KPTW, Pottstown Limerick Airport

Location: Royersford, PA, United States Lat: 40.233
Local Time: 9:03 AM EDT (13:03 GMT) Lon: -75.55
Time Zone: US/Eastern Elev: 291 ft

Show me the last for .
Show Decoded

2016-04-30 08:54 METAR KPTW 301254Z AUTO 03007KT 9SM FEW025 OVC038 09/04 A3023 RMK AO2 SLP235
                 T00890044 =
2016-04-30 08:49 METAR KPTW 301249Z AUTO 07005KT 9SM SCT025 OVC038 09/04 A3023 RMK AO2 =
2016-04-30 07:54 METAR KPTW 301154Z AUTO 02004KT 9SM OVC026 08/04 A3023 RMK AO2 SLP235 T00780044
                 10078 20067 51021 =
2016-04-30 06:54 METAR KPTW 301054Z AUTO 01003KT 9SM OVC027 07/04 A3022 RMK AO2 SLP231 T00720039
                 =
2016-04-30 05:54 METAR KPTW 300954Z AUTO 00000KT 10SM OVC025 07/03 A3020 RMK AO2 SLP226 T00720033
                 =
2016-04-30 04:54 METAR KPTW 300854Z AUTO 00000KT 10SM OVC019 07/04 A3017 RMK AO2 SLP214 T00720039
                 53003 =
2016-04-30 04:16 METAR KPTW 300816Z AUTO 00000KT 10SM BKN019 OVC031 07/03 A3016 RMK AO2 T00720033
                 =
2016-04-30 03:54 METAR KPTW 300754Z AUTO 02003KT 10SM FEW019 FEW023 OVC030 07/03 A3016 RMK AO2
                 SLP211 T00720033 =
2016-04-30 02:54 METAR KPTW 300654Z AUTO 08003KT 10SM OVC016 07/03 A3016 RMK AO2 SLP210 T00670033
                 =
2016-04-30 01:54 METAR KPTW 300554Z AUTO 07004KT 10SM OVC017 07/03 A3016 RMK AO2 SLP211 T00670028
                 10089 20067 50002 =
2016-04-30 00:54 METAR KPTW 300454Z AUTO 06005KT 10SM OVC020 07/03 A3017 RMK AO2 SLP215 T00720033
                 401060056 =
2016-04-29 23:54 METAR KPTW 300354Z AUTO 08003KT 10SM OVC027 07/03 A3016 RMK AO2 SLP211 T00720033
                 =
2016-04-29 22:54 METAR KPTW 300254Z AUTO 08006KT 10SM OVC023 08/03 A3015 RMK AO2 SLP208 T00780033
                 50021 =
2016-04-29 21:54 METAR KPTW 300154Z AUTO 06005KT 10SM BKN021 OVC027 08/04 A3016 RMK AO2 SLP210
                 T00780044 =
2016-04-29 20:54 METAR KPTW 300054Z AUTO 10003KT 10SM OVC026 08/04 A3011 RMK AO2 SLP195 T00830044
                 =
2016-04-29 19:54 METAR KPTW 292354Z AUTO 00000KT 9SM OVC019 09/06 A3009 RMK AO2 SLP187 60000
                 T00890056 10106 20089 53003 =
2016-04-29 18:54 METAR KPTW 292254Z AUTO VRB03KT 9SM OVC022 09/05 A3008 RMK AO2 SLP183 T00890050
                 =
2016-04-29 17:54 METAR KPTW 292154Z AUTO 08005KT 9SM OVC024 09/05 A3007 RMK AO2 SLP182 T00890050
                 =
2016-04-29 16:54 METAR KPTW 292054Z AUTO 07005KT 9SM OVC026 09/05 A3008 RMK AO2 SLP185 60000
                 T00940050 51005 =
2016-04-29 15:54 METAR KPTW 291954Z AUTO 08006KT 10SM OVC028 09/04 A3007 RMK AO2 RAE13 SLP182
                 P0000 T00940044 =
2016-04-29 14:54 METAR KPTW 291854Z AUTO 00000KT 6SM -RA OVC032 10/03 A3009 RMK AO2 RAB45 SLP187
                 P0000 T01000033 =
2016-04-29 13:54 METAR KPTW 291754Z AUTO VRB06KT 10SM OVC031 11/04 A3006 RMK AO2 SLP179 T01060044
                 10106 20067 58015 =
2016-04-29 12:54 METAR KPTW 291654Z AUTO VRB05KT 10SM OVC037 11/04 A3008 RMK AO2 SLP184 T01060039
                 =
2016-04-29 11:54 METAR KPTW 291554Z AUTO 10007KT 10SM OVC039 10/04 A3010 RMK AO2 SLP192 T01000039
                 =
2016-04-29 10:54 METAR KPTW 291454Z AUTO 08004KT 9SM OVC035 09/05 A3011 RMK AO2 SLP195 T00940050
                 53008 =
2016-04-29 09:54 METAR KPTW 291354Z AUTO 08004KT 8SM OVC034 08/06 A3009 RMK AO2 SLP188 T00830056
                 =
2016-04-29 09:12 METAR KPTW 291312Z AUTO 07005KT 7SM OVC030 08/06 A3010 RMK AO2 T00780056 =

Support USWX by starting your Amazon purchase here.